Time;durP1;ratioP1;P1;durP2;ratioP2;P2;SDS_P1;SDS_P2;PMS_P1;PMS_P2;Temp;Humidity;BMP_temperature;BMP_pressure;BME280_temperature;BME280_humidity;BME280_pressure;Samples;Min_cycle;Max_cycle;Signal;HPM_P1;HPM_P2
2022/08/13 00:01:37;;;;;;;28.33;16.00;;;;;;;18.57;100.00;101110.31;7386781;19;20445;-60
2022/08/13 00:04:14;;;;;;;40.97;22.63;;;;;;;18.53;100.00;101112.88;7393452;19;20447;-59
2022/08/13 00:07:07;;;;;;;18.23;10.60;;;;;;;18.54;100.00;101109.41;7393392;19;20419;-59
2022/08/13 00:09:38;;;;;;;22.90;12.63;;;;;;;18.53;100.00;101105.03;7385071;19;20506;-63
2022/08/13 00:15:14;;;;;;;17.03;7.33;;;;;;;18.47;100.00;101104.09;7387566;19;20399;-60
2022/08/13 00:17:49;;;;;;;14.43;9.20;;;;;;;18.45;100.00;101095.38;7397734;19;20387;-59
2022/08/13 00:20:37;;;;;;;8.60;5.10;;;;;;;18.38;100.00;101097.84;7386056;19;20418;-59
2022/08/13 00:23:09;;;;;;;9.87;5.17;;;;;;;18.35;100.00;101085.63;7393151;19;20459;-59
2022/08/13 00:25:51;;;;;;;11.10;5.80;;;;;;;18.31;100.00;101076.00;7387161;19;20948;-59
2022/08/13 00:28:32;;;;;;;13.20;5.77;;;;;;;18.28;100.00;101071.63;7393267;19;20397;-59
2022/08/13 00:31:01;;;;;;;10.07;5.80;;;;;;;18.26;100.00;101069.84;7386256;19;20417;-59
2022/08/13 00:33:31;;;;;;;9.60;5.40;;;;;;;18.21;100.00;101065.41;7392805;19;20384;-59
2022/08/13 00:36:16;;;;;;;7.67;4.50;;;;;;;18.18;100.00;101068.00;7384605;19;20422;-60
2022/08/13 00:39:05;;;;;;;7.40;4.67;;;;;;;18.16;100.00;101061.84;7391472;19;20408;-59
2022/08/13 00:41:40;;;;;;;10.87;4.30;;;;;;;18.08;100.00;101053.91;7385998;19;20423;-59
2022/08/13 00:44:32;;;;;;;13.77;7.30;;;;;;;18.04;100.00;101051.19;7386737;19;20912;-59
2022/08/13 00:49:47;;;;;;;24.60;13.13;;;;;;;17.98;100.00;101048.47;7385555;19;20403;-59
2022/08/13 00:52:30;;;;;;;14.60;7.57;;;;;;;17.90;100.00;101044.03;7391543;19;20394;-58
2022/08/13 00:55:01;;;;;;;34.07;17.00;;;;;;;17.86;100.00;101037.00;7385876;19;21004;-59
2022/08/13 00:57:32;;;;;;;15.63;6.57;;;;;;;17.77;100.00;101032.53;7392137;19;20384;-59
2022/08/13 01:00:07;;;;;;;16.13;7.90;;;;;;;17.70;100.00;101027.16;7385015;19;20415;-59
2022/08/13 01:02:41;;;;;;;9.53;5.27;;;;;;;17.65;100.00;101019.28;7392405;19;20399;-59
2022/08/13 01:05:25;;;;;;;8.97;5.10;;;;;;;17.70;100.00;101027.16;7386088;19;20419;-59
2022/08/13 01:08:00;;;;;;;13.23;5.87;;;;;;;17.68;100.00;101016.69;7392996;19;20828;-59
2022/08/13 01:10:35;;;;;;;13.70;6.20;;;;;;;17.69;100.00;101021.06;7386012;19;20406;-59
2022/08/13 01:13:11;;;;;;;9.20;6.10;;;;;;;17.72;100.00;101018.53;7390237;19;20380;-59
2022/08/13 01:15:45;;;;;;;9.27;5.83;;;;;;;17.77;100.00;101015.97;7385648;19;20415;-59
2022/08/13 01:18:25;;;;;;;9.20;4.83;;;;;;;17.73;100.00;101032.47;7391298;19;20414;-59
2022/08/13 01:21:02;;;;;;;9.13;3.90;;;;;;;17.66;100.00;101040.19;7385272;19;20737;-59
2022/08/13 01:23:44;;;;;;;9.83;4.50;;;;;;;17.63;100.00;101039.22;7392126;19;20407;-59
2022/08/13 01:26:32;;;;;;;5.60;3.83;;;;;;;17.63;100.00;101044.44;7385200;19;20979;-59
2022/08/13 01:29:08;;;;;;;7.10;3.93;;;;;;;17.61;100.00;101051.38;7390527;19;20430;-59
2022/08/13 01:31:43;;;;;;;7.37;5.23;;;;;;;17.63;100.00;101045.31;7384776;19;20519;-59
2022/08/13 01:34:15;;;;;;;9.90;5.73;;;;;;;17.62;100.00;101043.56;7385369;19;20740;-59
2022/08/13 01:36:55;;;;;;;7.37;3.90;;;;;;;17.58;100.00;101053.94;7391184;19;20489;-59
2022/08/13 01:39:29;;;;;;;9.07;3.80;;;;;;;17.54;100.00;101055.63;7384295;19;20443;-59
2022/08/13 01:42:08;;;;;;;6.53;4.30;;;;;;;17.53;100.00;101053.84;7391287;19;20383;-59
2022/08/13 01:44:39;;;;;;;8.07;4.90;;;;;;;17.54;100.00;101060.84;7385798;19;21289;-59
2022/08/13 01:52:54;;;;;;;8.23;4.50;;;;;;;17.52;100.00;101092.09;7397096;19;20717;-59
2022/08/13 01:55:29;;;;;;;9.57;4.67;;;;;;;17.52;100.00;101093.81;7392933;19;20428;-59
2022/08/13 01:58:22;;;;;;;7.93;4.23;;;;;;;17.50;100.00;101083.38;7398186;19;20388;-59
2022/08/13 02:00:59;;;;;;;10.03;4.13;;;;;;;17.46;100.00;101089.38;7390743;19;20414;-59
2022/08/13 02:03:30;;;;;;;5.90;3.33;;;;;;;17.45;100.00;101087.63;7398644;19;20427;-59
2022/08/13 02:06:00;;;;;;;8.30;4.50;;;;;;;17.45;100.00;101092.84;7391329;19;20426;-59
2022/08/13 02:08:52;;;;;;;7.87;4.00;;;;;;;17.41;100.00;101096.22;7400276;19;20391;-59
2022/08/13 02:11:24;;;;;;;9.27;5.57;;;;;;;17.51;100.00;101086.84;7392211;19;20489;-59
2022/08/13 02:13:56;;;;;;;5.40;3.30;;;;;;;17.44;100.00;101090.19;7395763;19;20388;-59
2022/08/13 02:16:30;;;;;;;9.73;5.00;;;;;;;17.39;100.00;101087.50;7392531;19;20754;-59
2022/08/13 02:19:01;;;;;;;10.20;4.37;;;;;;;17.36;100.00;101088.31;7397159;19;20403;-59
2022/08/13 02:21:47;;;;;;;6.27;3.43;;;;;;;17.37;100.00;101097.91;7397082;19;20416;-60
2022/08/13 02:24:17;;;;;;;7.43;4.00;;;;;;;17.37;100.00;101102.22;7391809;19;20391;-60
2022/08/13 02:26:52;;;;;;;6.87;4.30;;;;;;;17.33;100.00;101109.13;7397248;19;20395;-60
2022/08/13 02:29:24;;;;;;;210.40;119.40;;;;;;;17.47;100.00;101091.13;7392951;19;20515;-60
2022/08/13 02:31:56;;;;;;;11.03;7.47;;;;;;;17.61;100.00;101086.19;7396867;19;20913;-61
2022/08/13 02:34:46;;;;;;;15.63;9.93;;;;;;;17.55;100.00;101114.75;7390166;19;20421;-59
2022/08/13 02:37:21;;;;;;;31.47;18.93;;;;;;;17.48;100.00;101128.53;7397398;19;20392;-59
2022/08/13 02:41:38;;;;;;;10.97;6.37;;;;;;;17.47;100.00;101126.75;7389688;19;20991;-59
2022/08/13 02:43:02;;;;;;;29.10;17.60;;;;;;;17.53;100.00;101116.44;7396720;19;20394;-59
2022/08/13 02:45:32;;;;;;;18.30;11.70;;;;;;;17.54;100.00;101113.88;7392845;19;20431;-59
2022/08/13 02:48:05;;;;;;;15.23;7.57;;;;;;;17.48;100.00;101115.50;7396358;19;20388;-59
2022/08/13 02:50:45;;;;;;;8.40;4.90;;;;;;;17.30;100.00;101102.97;7390639;19;20470;-59
2022/08/13 02:53:21;;;;;;;17.60;6.17;;;;;;;17.34;100.00;101073.50;7395549;19;20376;-59
2022/08/13 02:55:59;;;;;;;7.80;4.37;;;;;;;17.19;100.00;101017.63;7390980;19;20417;-59
2022/08/13 02:58:31;;;;;;;11.37;6.00;;;;;;;17.08;100.00;100993.06;7395733;19;20402;-58
2022/08/13 03:01:02;;;;;;;7.83;3.97;;;;;;;16.98;100.00;100976.34;7389663;19;20432;-57
2022/08/13 03:03:34;;;;;;;5.40;3.50;;;;;;;16.89;100.00;100977.06;7396625;19;20451;-59
2022/08/13 03:06:08;;;;;;;10.10;5.43;;;;;;;16.85;100.00;100976.13;7390591;19;20418;-59
2022/08/13 03:08:38;;;;;;;9.23;5.37;;;;;;;16.77;100.00;100980.28;7395780;19;20394;-59
2022/08/13 03:11:12;;;;;;;10.60;3.60;;;;;;;16.70;100.00;100978.41;7390290;19;20433;-58
2022/08/13 03:13:47;;;;;;;11.40;3.60;;;;;;;16.62;100.00;100969.56;7397993;19;20396;-59
2022/08/13 03:16:22;;;;;;;6.90;3.70;;;;;;;16.52;100.00;100972.00;7389408;19;20427;-58
2022/08/13 03:18:53;;;;;;;8.47;4.30;;;;;;;16.48;100.00;100970.16;7395268;19;20473;-58
2022/08/13 03:21:24;;;;;;;9.30;4.60;;;;;;;16.46;100.00;100956.25;7389998;19;20414;-59
2022/08/13 03:24:13;;;;;;;8.50;4.80;;;;;;;16.47;100.00;100958.00;7395352;19;20465;-59
2022/08/13 03:26:52;;;;;;;9.63;3.90;;;;;;;16.45;100.00;100973.59;7394965;19;21069;-59
2022/08/13 03:29:26;;;;;;;11.13;5.73;;;;;;;16.46;100.00;100974.47;7388039;19;20406;-58
2022/08/13 03:32:17;;;;;;;8.73;5.23;;;;;;;16.53;100.00;100967.66;7395515;19;20389;-59
2022/08/13 03:35:00;;;;;;;7.67;3.83;;;;;;;16.41;100.00;100978.72;7387830;19;20779;-59
2022/08/13 03:37:39;;;;;;;5.93;3.57;;;;;;;16.34;100.00;100972.47;7395399;19;20387;-59
2022/08/13 03:40:13;;;;;;;13.60;3.80;;;;;;;16.33;100.00;100974.22;7388281;19;20807;-59
2022/08/13 03:42:48;;;;;;;7.10;3.73;;;;;;;16.27;100.00;100968.88;7394989;19;20385;-59
2022/08/13 03:45:28;;;;;;;12.93;5.50;;;;;;;16.28;100.00;100947.22;7389046;19;20420;-58
2022/08/13 03:48:02;;;;;;;6.23;3.77;;;;;;;16.19;100.00;100934.88;7394801;19;20428;-57
2022/08/13 03:50:32;;;;;;;9.13;4.00;;;;;;;16.16;100.00;100928.72;7388615;19;20413;-58
2022/08/13 03:53:03;;;;;;;12.70;6.30;;;;;;;16.20;100.00;100907.09;7394246;19;20715;-59
2022/08/13 03:55:33;;;;;;;8.63;4.00;;;;;;;16.11;100.00;100901.72;7389165;19;20424;-59
2022/08/13 03:58:14;;;;;;;12.23;5.07;;;;;;;16.08;100.00;100883.41;7393997;19;20377;-59
2022/08/13 04:00:49;;;;;;;7.40;4.90;;;;;;;16.03;100.00;100862.50;7387944;19;20779;-59
2022/08/13 04:03:21;;;;;;;7.50;5.40;;;;;;;16.05;100.00;100846.09;7394431;19;20416;-59
2022/08/13 04:05:52;;;;;;;10.73;4.97;;;;;;;16.05;100.00;100845.22;7388662;19;20408;-59
2022/08/13 04:08:27;;;;;;;7.20;4.40;;;;;;;15.97;100.00;100842.44;7393365;19;20393;-59
2022/08/13 04:10:57;;;;;;;6.30;3.80;;;;;;;15.99;100.00;100835.53;7390282;19;20445;-59
2022/08/13 04:13:28;;;;;;;45.10;23.33;;;;;;;15.96;100.00;100813.78;7393623;19;20396;-59
2022/08/13 04:16:22;;;;;;;33.83;19.17;;;;;;;15.89;100.00;100823.19;7387209;19;20427;-59
2022/08/13 04:19:01;;;;;;;20.40;10.80;;;;;;;15.87;100.00;100811.84;7393065;19;20438;-59
2022/08/13 04:21:35;;;;;;;15.27;8.73;;;;;;;15.86;100.00;100799.69;7388669;19;20943;-59
2022/08/13 04:24:11;;;;;;;12.90;7.23;;;;;;;15.90;100.00;100784.16;7393731;19;20388;-58
2022/08/13 04:26:47;;;;;;;14.57;8.90;;;;;;;15.92;100.00;100782.53;7393454;19;20416;-59
2022/08/13 04:29:17;;;;;;;9.47;5.90;;;;;;;15.95;100.00;100771.31;7387144;19;21050;-58
2022/08/13 04:31:51;;;;;;;10.70;6.53;;;;;;;15.95;100.00;100768.69;7394108;19;20384;-58
2022/08/13 04:34:26;;;;;;;8.83;6.07;;;;;;;15.97;100.00;100773.91;7389188;19;20392;-59
2022/08/13 04:37:11;;;;;;;16.27;6.40;;;;;;;15.90;100.00;100773.75;7393527;19;20393;-58
2022/08/13 04:39:50;;;;;;;17.63;7.87;;;;;;;15.89;100.00;100771.16;7385700;19;21062;-59
2022/08/13 04:42:47;;;;;;;25.63;12.93;;;;;;;15.98;100.00;100773.94;7397749;19;20470;-59
2022/08/13 04:45:18;;;;;;;11.67;7.17;;;;;;;16.09;100.00;100776.75;7386972;19;20409;-59
2022/08/13 04:47:58;;;;;;;26.60;14.83;;;;;;;16.14;100.00;100793.34;7392951;19;20804;-59
2022/08/13 04:50:29;;;;;;;25.77;14.23;;;;;;;16.14;100.00;100795.06;7386322;19;20404;-59
2022/08/13 04:52:59;;;;;;;8.37;5.53;;;;;;;16.11;100.00;100813.22;7393131;19;20405;-59
2022/08/13 04:55:34;;;;;;;9.20;5.00;;;;;;;16.18;100.00;100818.59;7386883;19;20430;-59
2022/08/13 04:58:24;;;;;;;9.93;5.70;;;;;;;16.30;100.00;100825.75;7392481;19;20391;-58
2022/08/13 05:00:56;;;;;;;9.50;5.53;;;;;;;16.39;100.00;100829.38;7385395;19;20406;-59
2022/08/13 05:03:29;;;;;;;8.07;5.13;;;;;;;16.39;100.00;100847.59;7392981;19;20757;-59
2022/08/13 05:06:01;;;;;;;9.87;5.50;;;;;;;16.45;100.00;100847.72;7386186;19;20409;-59
2022/08/13 05:08:32;;;;;;;8.57;4.80;;;;;;;16.52;100.00;100861.75;7391947;19;20389;-58
2022/08/13 05:11:03;;;;;;;11.13;4.40;;;;;;;16.53;100.00;100880.00;7386063;19;20415;-56
2022/08/13 05:13:50;;;;;;;8.07;5.00;;;;;;;16.55;100.00;100891.31;7391816;19;21032;-59
2022/08/13 05:16:25;;;;;;;7.30;3.83;;;;;;;16.61;100.00;100898.34;7387829;19;20439;-59
2022/08/13 05:19:00;;;;;;;7.73;3.60;;;;;;;16.62;100.00;100915.75;7391386;19;20400;-59
2022/08/13 05:21:32;;;;;;;12.03;3.87;;;;;;;16.66;100.00;100921.91;7386807;19;20906;-58
2022/08/13 05:24:22;;;;;;;6.30;4.30;;;;;;;16.72;100.00;100932.44;7390693;19;20383;-59
2022/08/13 05:27:13;;;;;;;9.20;4.60;;;;;;;16.83;100.00;100940.47;7400064;19;20386;-59
2022/08/13 05:29:45;;;;;;;6.50;4.10;;;;;;;16.87;100.00;100948.34;7392688;19;20413;-59
2022/08/13 05:32:39;;;;;;;7.47;3.73;;;;;;;16.92;100.00;100951.03;7399475;19;20387;-57
2022/08/13 05:35:18;;;;;;;12.10;3.40;;;;;;;17.04;100.00;100944.34;7394245;19;20417;-54
2022/08/13 05:38:07;;;;;;;10.73;4.23;;;;;;;17.09;100.00;100953.13;7399112;19;20379;-58
2022/08/13 05:40:50;;;;;;;5.97;3.80;;;;;;;17.12;100.00;100964.47;7391942;19;21046;-57
2022/08/13 05:43:23;;;;;;;7.30;4.20;;;;;;;17.16;100.00;100956.72;7398953;19;20935;-58
2022/08/13 05:45:57;;;;;;;12.63;5.30;;;;;;;17.23;100.00;100959.44;7392540;19;20436;-57
2022/08/13 05:48:37;;;;;;;9.13;5.23;;;;;;;17.59;100.00;100954.81;7398139;19;20406;-58
2022/08/13 05:51:13;;;;;;;25.60;17.20;;;;;;;17.62;100.00;100969.63;7392857;19;20422;-59
2022/08/13 05:53:44;;;;;;;45.37;26.70;;;;;;;17.73;100.00;100978.53;7398677;19;20414;-58
2022/08/13 05:56:36;;;;;;;36.00;22.80;;;;;;;17.84;100.00;100990.88;7391833;19;20997;-57
2022/08/13 06:03:22;;;;;;;20.10;13.23;;;;;;;17.89;100.00;100990.06;7397574;19;20413;-58
2022/08/13 06:05:03;;;;;;;18.10;8.80;;;;;;;18.15;100.00;101020.06;7392076;19;20420;-59
2022/08/13 06:07:35;;;;;;;20.03;11.60;;;;;;;18.20;100.00;101027.09;7398375;19;20388;-57
2022/08/13 06:10:08;;;;;;;12.27;7.70;;;;;;;18.31;100.00;101034.22;7390130;19;20414;-57
2022/08/13 06:12:39;;;;;;;21.63;14.53;;;;;;;18.41;100.00;101036.09;7402302;19;20422;-57
2022/08/13 06:15:13;;;;;;;29.13;18.70;;;;;;;18.49;100.00;101050.16;7390824;19;20482;-58
2022/08/13 06:17:43;;;;;;;20.80;14.00;;;;;;;18.61;100.00;101061.63;7397911;19;20392;-55
2022/08/13 06:20:13;;;;;;;11.80;7.07;;;;;;;18.66;100.00;101079.97;7390824;19;20946;-58
2022/08/13 06:22:48;;;;;;;21.70;6.10;;;;;;;18.80;100.00;101085.38;7397815;19;20732;-58
2022/08/13 06:25:21;;;;;;;6.57;4.30;;;;;;;18.88;100.00;101089.84;7391872;19;20414;-59
2022/08/13 06:27:52;;;;;;;13.30;5.10;;;;;;;18.95;100.00;101101.25;7399332;19;20735;-58
2022/08/13 06:30:28;;;;;;;5.53;3.30;;;;;;;19.06;100.00;101118.84;7385486;19;20445;-59
2022/08/13 06:33:02;;;;;;;11.80;4.50;;;;;;;19.14;100.00;101125.06;7393014;19;20387;-57
2022/08/13 06:35:53;;;;;;;13.50;5.57;;;;;;;19.21;100.00;101133.81;7383626;19;20426;-60
2022/08/13 06:38:30;;;;;;;11.43;5.27;;;;;;;19.28;100.00;101146.16;7392177;19;20405;-59
2022/08/13 06:41:03;;;;;;;16.67;6.30;;;;;;;19.36;100.00;101143.59;7384459;19;20466;-58
2022/08/13 06:43:37;;;;;;;9.60;4.80;;;;;;;19.45;100.00;101159.41;7399095;19;20395;-58
2022/08/13 06:46:24;;;;;;;10.67;5.83;;;;;;;19.59;100.00;101161.31;7393706;19;20435;-60
2022/08/13 06:48:57;;;;;;;24.90;10.80;;;;;;;19.72;100.00;101173.66;7395993;19;20382;-58
2022/08/13 06:51:31;;;;;;;12.83;5.00;;;;;;;19.83;100.00;101176.38;7390787;19;20443;-59
2022/08/13 06:54:10;;;;;;;11.93;5.20;;;;;;;19.95;100.00;101180.88;7396644;19;20419;-59
2022/08/13 06:56:57;;;;;;;7.30;3.80;;;;;;;20.05;100.00;101190.56;7395805;19;20427;-59
2022/08/13 06:59:46;;;;;;;6.47;3.10;;;;;;;20.19;100.00;101195.06;7392416;19;20410;-56
2022/08/13 07:02:37;;;;;;;9.10;3.50;;;;;;;20.29;100.00;101191.66;7396544;19;20724;-59
2022/08/13 07:05:08;;;;;;;11.73;5.80;;;;;;;20.38;100.00;101196.09;7390279;19;20451;-59
2022/08/13 07:07:44;;;;;;;13.50;6.67;;;;;;;20.45;100.00;101192.66;7396596;19;20722;-58
2022/08/13 07:10:16;;;;;;;10.03;4.73;;;;;;;20.56;100.00;101200.59;7386361;19;20403;-59
2022/08/13 07:12:46;;;;;;;10.50;4.60;;;;;;;20.68;100.00;101210.31;7395797;19;20380;-59
2022/08/13 07:15:17;;;;;;;8.93;4.40;;;;;;;20.85;100.00;101234.03;7388196;19;21021;-59
2022/08/13 07:18:07;;;;;;;16.20;6.67;;;;;;;21.01;100.00;101236.75;7395592;19;20468;-59
2022/08/13 07:20:40;;;;;;;13.60;5.27;;;;;;;21.14;100.00;101245.59;7388268;19;20479;-58
2022/08/13 07:23:11;;;;;;;17.47;7.70;;;;;;;21.24;100.00;101241.25;7395668;19;20372;-58
2022/08/13 07:26:03;;;;;;;11.43;5.57;;;;;;;21.42;100.00;101236.09;7390201;19;20439;-59
2022/08/13 07:28:39;;;;;;;15.00;7.80;;;;;;;21.52;100.00;101257.13;7395035;19;20467;-58
2022/08/13 07:31:21;;;;;;;20.77;7.30;;;;;;;21.63;100.00;101265.91;7386982;19;20419;-58
2022/08/13 07:33:53;;;;;;;27.03;10.60;;;;;;;21.76;100.00;101266.00;7395387;19;20459;-58
2022/08/13 07:36:32;;;;;;;12.97;5.07;;;;;;;21.90;100.00;101279.19;7375119;19;20794;-58
2022/08/13 07:39:04;;;;;;;8.60;3.63;;;;;;;22.07;100.00;101293.25;7394072;19;20395;-58
2022/08/13 07:41:41;;;;;;;10.80;3.93;;;;;;;;;;7381528;19;20478;-59
2022/08/13 07:44:31;;;;;;;20.80;6.97;;;;;;;22.37;100.00;101295.91;7387222;19;20399;-60
2022/08/13 07:47:22;;;;;;;20.40;8.80;;;;;;;22.47;100.00;101292.44;7393369;19;20953;-58
2022/08/13 07:49:58;;;;;;;48.97;20.13;;;;;;;22.59;100.00;101282.78;7387202;19;20412;-59
2022/08/13 07:52:30;;;;;;;12.30;4.90;;;;;;;22.71;100.00;101289.81;7394840;19;20391;-59
2022/08/13 07:55:01;;;;;;;11.10;4.63;;;;;;;22.86;100.00;101299.47;7388386;19;20430;-59
2022/08/13 07:57:34;;;;;;;12.03;4.40;;;;;;;23.01;100.00;101325.75;7394506;19;20770;-58
2022/08/13 08:00:21;;;;;;;11.47;5.00;;;;;;;23.19;100.00;101329.22;7386880;19;20413;-59
2022/08/13 08:02:57;;;;;;;8.93;3.87;;;;;;;23.33;100.00;101347.66;7394377;19;20391;-59
2022/08/13 08:05:27;;;;;;;11.50;4.93;;;;;;;23.51;100.00;101353.72;7388724;19;20432;-59
2022/08/13 08:08:09;;;;;;;7.67;4.30;;;;;;;23.67;100.00;101362.47;7393620;19;20479;-58
2022/08/13 08:10:41;;;;;;;6.50;3.20;;;;;;;23.80;100.00;101384.38;7388408;19;20974;-59
2022/08/13 08:13:13;;;;;;;8.60;2.80;;;;;;;24.09;100.00;101386.91;7393937;19;20391;-59
2022/08/13 08:15:46;;;;;;;8.33;3.33;;;;;;;24.17;100.00;101388.63;7387535;19;20430;-57
2022/08/13 08:18:34;;;;;;;6.60;2.60;;;;;;;24.31;100.00;101404.38;7393465;19;20970;-59
2022/08/13 08:21:25;;;;;;;5.87;3.03;;;;;;;24.47;100.00;101424.53;7387619;19;20407;-59
2022/08/13 08:24:16;;;;;;;11.40;3.67;;;;;;;24.66;100.00;101441.09;7394116;19;20408;-59
2022/08/13 08:27:00;;;;;;;8.47;3.37;;;;;;;24.78;100.00;101440.16;7392976;19;20423;-58
2022/08/13 08:29:34;;;;;;;6.63;3.27;;;;;;;24.90;100.00;101444.50;7386211;19;20439;-61
2022/08/13 08:32:23;;;;;;;7.97;3.60;;;;;;;24.96;100.00;101442.69;7393792;19;20379;-58
2022/08/13 08:35:15;;;;;;;9.40;3.67;;;;;;;25.05;100.00;101443.50;7386834;19;20977;-60
2022/08/13 08:43:28;;;;;;;9.10;3.70;;;;;;;25.53;100.00;101494.19;7391694;19;20451;-60
2022/08/13 08:46:05;;;;;;;7.13;3.20;;;;;;;25.61;100.00;101487.03;7385986;19;20486;-59
2022/08/13 08:48:43;;;;;;;9.37;3.53;;;;;;;25.73;100.00;101478.09;7392454;19;20406;-59
2022/08/13 08:51:24;;;;;;;12.50;3.73;;;;;;;25.83;100.00;101484.19;7389407;19;20443;-59
2022/08/13 08:53:55;;;;;;;17.73;7.83;;;;;;;25.96;100.00;101474.34;7393252;19;20383;-59
2022/08/13 08:56:45;;;;;;;10.63;3.57;;;;;;;26.06;100.00;101477.75;7388972;19;20454;-60
2022/08/13 08:59:27;;;;;;;6.87;3.40;;;;;;;26.13;100.00;101487.38;7391323;19;20432;-59
2022/08/13 09:02:00;;;;;;;8.33;3.63;;;;;;;26.20;100.00;101489.03;7399934;19;21048;-59
2022/08/13 09:04:32;;;;;;;10.33;3.90;;;;;;;26.34;100.00;101490.69;7392578;19;20380;-61
2022/08/13 09:07:22;;;;;;;16.63;5.83;;;;;;;26.40;98.80;101486.19;7400224;19;20823;-59
2022/08/13 09:09:54;;;;;;;10.20;4.23;;;;;;;26.47;100.00;101489.63;7390476;19;20403;-60
2022/08/13 09:12:25;;;;;;;8.50;3.53;;;;;;;26.52;100.00;101490.44;7400036;19;20388;-60
2022/08/13 09:14:57;;;;;;;8.20;2.77;;;;;;;26.64;98.79;101491.16;7392484;19;20929;-59
2022/08/13 09:17:31;;;;;;;5.83;2.97;;;;;;;26.72;100.00;101486.66;7396476;19;20384;-59
2022/08/13 09:20:12;;;;;;;8.90;3.90;;;;;;;26.76;100.00;101484.81;7392610;19;20411;-59
2022/08/13 09:22:44;;;;;;;5.30;2.90;;;;;;;26.78;99.38;101489.22;7399653;19;20451;-60
2022/08/13 09:25:26;;;;;;;6.50;3.30;;;;;;;26.86;93.50;101488.22;7392455;19;20407;-60
2022/08/13 09:27:57;;;;;;;5.53;3.00;;;;;;;26.95;95.09;101488.09;7399462;19;20454;-60
2022/08/13 09:30:42;;;;;;;10.27;3.80;;;;;;;27.01;94.56;101485.34;7392076;19;20451;-59
2022/08/13 09:33:21;;;;;;;7.70;2.77;;;;;;;27.10;94.54;101479.03;7399070;19;20395;-59
2022/08/13 09:36:12;;;;;;;10.50;4.37;;;;;;;27.24;95.88;101481.47;7390556;19;20426;-60
2022/08/13 09:38:51;;;;;;;20.83;8.33;;;;;;;27.39;96.77;101479.44;7398380;19;20466;-59
2022/08/13 09:41:27;;;;;;;8.60;3.50;;;;;;;27.44;90.17;101485.53;7391243;19;20808;-59
2022/08/13 09:43:59;;;;;;;17.43;7.20;;;;;;;27.48;89.26;101484.59;7397360;19;20383;-60
2022/08/13 09:46:30;;;;;;;6.40;3.40;;;;;;;27.52;88.41;101483.63;7391244;19;20964;-60
2022/08/13 09:49:03;;;;;;;8.40;2.90;;;;;;;27.55;86.35;101482.69;7397694;19;20403;-60
2022/08/13 09:51:35;;;;;;;6.63;2.97;;;;;;;27.58;85.42;101483.53;7392935;19;20442;-60
2022/08/13 09:54:24;;;;;;;7.70;2.83;;;;;;;27.64;87.76;101471.97;7392234;19;20398;-59
2022/08/13 09:56:58;;;;;;;5.40;3.00;;;;;;;27.75;86.32;101469.97;7397094;19;20380;-59
2022/08/13 09:59:32;;;;;;;4.93;2.90;;;;;;;27.78;90.23;101463.72;7387965;19;20779;-59
2022/08/13 10:02:08;;;;;;;8.13;4.53;;;;;;;27.82;89.47;101464.53;7398341;19;20383;-60
2022/08/13 10:04:42;;;;;;;9.90;3.70;;;;;;;27.82;83.38;101460.13;7393376;19;20420;-60
2022/08/13 10:07:16;;;;;;;11.43;4.93;;;;;;;27.98;86.92;101460.69;7398261;19;20378;-59
2022/08/13 10:09:49;;;;;;;6.60;2.80;;;;;;;28.06;82.93;101463.19;7375024;19;20460;-60
2022/08/13 10:12:39;;;;;;;9.70;4.30;;;;;;;28.15;81.56;101454.19;7397285;19;20383;-60
2022/08/13 10:15:10;;;;;;;7.07;3.73;;;;;;;28.19;79.76;101452.31;7392694;19;20426;-60
2022/08/13 10:17:55;;;;;;;9.43;4.13;;;;;;;28.18;76.80;101451.44;7395956;19;20391;-60
2022/08/13 10:20:36;;;;;;;8.20;3.10;;;;;;;28.29;78.45;101453.88;7389169;19;20429;-60
2022/08/13 10:23:07;;;;;;;10.50;4.43;;;;;;;28.38;77.36;101447.50;7397856;19;20715;-60
2022/08/13 10:25:37;;;;;;;7.97;3.80;;;;;;;28.44;81.40;101442.06;7390484;19;20421;-59
2022/08/13 10:28:20;;;;;;;7.37;3.10;;;;;;;28.53;76.69;101441.00;7395895;19;20398;-60
2022/08/13 10:31:01;;;;;;;8.00;3.67;;;;;;;28.55;75.46;101444.50;7389474;19;20442;-59
2022/08/13 10:33:54;;;;;;;6.63;3.50;;;;;;;28.69;74.13;101438.84;7398718;19;20734;-60
2022/08/13 10:36:30;;;;;;;5.70;2.80;;;;;;;28.82;75.13;101436.78;7387482;19;20417;-59
2022/08/13 10:39:06;;;;;;;5.70;3.57;;;;;;;28.93;73.86;101428.59;7396192;19;20403;-60
2022/08/13 10:41:43;;;;;;;6.90;3.20;;;;;;;28.89;72.20;101430.44;7393895;19;20438;-59
2022/08/13 10:44:32;;;;;;;7.40;3.80;;;;;;;28.97;73.17;101431.13;7383068;19;20379;-60
2022/08/13 10:47:05;;;;;;;12.83;3.60;;;;;;;29.02;72.84;101428.34;7396925;19;20406;-60
2022/08/13 10:49:34;;;;;;;5.07;3.10;;;;;;;29.13;73.54;101430.75;7385918;19;20773;-59
2022/08/13 10:52:07;;;;;;;5.33;3.20;;;;;;;29.07;70.14;101431.75;7396301;19;20387;-59
2022/08/13 10:54:37;;;;;;;6.03;3.00;;;;;;;29.13;68.60;101422.78;7379640;19;20783;-59
2022/08/13 10:57:08;;;;;;;6.60;3.37;;;;;;;29.25;71.45;101413.59;7398108;19;20411;-60
2022/08/13 10:59:43;;;;;;;5.70;3.33;;;;;;;29.12;70.80;101418.38;7376244;19;20422;-60
2022/08/13 11:02:15;;;;;;;6.20;3.33;;;;;;;29.29;69.72;101422.34;7396355;19;20472;-59
2022/08/13 11:04:49;;;;;;;5.60;3.83;;;;;;;29.31;74.11;101418.75;7387584;19;20818;-60
2022/08/13 11:07:25;;;;;;;6.57;3.87;;;;;;;29.46;72.92;101412.16;7396521;19;20411;-60
2022/08/13 11:09:56;;;;;;;8.13;3.23;;;;;;;29.62;75.12;101419.72;7388979;19;21135;-60
2022/08/13 11:12:26;;;;;;;6.60;3.10;;;;;;;29.50;71.91;101420.94;7396164;19;20914;-60
2022/08/13 11:14:56;;;;;;;10.60;3.60;;;;;;;29.41;70.71;101418.50;7389038;19;20407;-60
2022/08/13 11:17:26;;;;;;;6.50;3.53;;;;;;;29.62;73.31;101417.06;7394879;19;20387;-60
2022/08/13 11:20:19;;;;;;;8.33;3.30;;;;;;;29.60;73.62;101413.56;7382406;19;20404;-59
2022/08/13 11:22:56;;;;;;;5.50;3.47;;;;;;;29.42;72.07;101409.63;7395115;19;20392;-59
2022/08/13 11:25:28;;;;;;;6.40;3.87;;;;;;;29.66;74.27;101410.75;7390321;19;20427;-60
2022/08/13 11:28:17;;;;;;;7.67;3.73;;;;;;;29.78;69.41;101407.75;7394813;19;20376;-59
2022/08/13 11:30:49;;;;;;;5.23;3.40;;;;;;;29.90;71.66;101395.00;7381639;19;20953;-59
2022/08/13 11:33:19;;;;;;;8.57;4.60;;;;;;;29.74;72.14;101400.75;7395585;19;20388;-60
2022/08/13 11:36:10;;;;;;;6.77;3.90;;;;;;;29.62;74.66;101411.75;7385245;19;20471;-60
2022/08/13 11:38:44;;;;;;;6.47;3.70;;;;;;;29.35;75.52;101400.94;7396372;19;20406;-60
2022/08/13 11:41:15;;;;;;;8.00;3.90;;;;;;;29.14;75.15;101395.28;7389464;19;20418;-60
2022/08/13 11:43:48;;;;;;;6.97;4.10;;;;;;;29.01;75.89;101405.34;7392927;19;20471;-60
2022/08/13 11:46:23;;;;;;;8.30;4.60;;;;;;;29.01;78.62;101400.03;7388993;19;20411;-60
2022/08/13 11:48:53;;;;;;;8.70;4.60;;;;;;;29.01;79.34;101393.88;7394192;19;20391;-59
2022/08/13 11:51:44;;;;;;;9.00;3.93;;;;;;;29.13;78.84;101390.00;7394137;19;20402;-60
2022/08/13 11:54:24;;;;;;;13.20;5.27;;;;;;;29.27;79.74;101385.19;7386857;19;20469;-60
2022/08/13 11:57:01;;;;;;;9.63;6.27;;;;;;;29.43;76.30;101380.31;7394134;19;20407;-60
2022/08/13 11:59:31;;;;;;;7.27;4.50;;;;;;;29.64;77.25;101383.34;7369316;19;20483;-59
2022/08/13 12:02:10;;;;;;;11.10;5.10;;;;;;;29.74;75.36;101378.63;7394385;19;20411;-59
2022/08/13 12:04:44;;;;;;;6.10;4.20;;;;;;;29.78;76.46;101380.25;7386694;19;20403;-60
2022/08/13 12:07:23;;;;;;;14.63;9.90;;;;;;;29.69;75.40;101380.56;7398547;19;20400;-60
2022/08/13 12:09:57;;;;;;;20.93;14.53;;;;;;;29.49;76.14;101382.00;7386487;19;20403;-60
2022/08/13 12:12:28;;;;;;;13.20;9.17;;;;;;;29.41;77.84;101378.66;7394044;19;20747;-60
2022/08/13 12:15:10;;;;;;;9.53;5.60;;;;;;;29.18;80.07;101374.84;7387460;19;20414;-60
2022/08/13 12:17:42;;;;;;;8.30;5.50;;;;;;;29.09;82.50;101374.19;7393404;19;20918;-60
2022/08/13 12:20:22;;;;;;;8.00;4.77;;;;;;;28.95;83.24;101368.34;7386806;19;20735;-60